createdAt,value
2019-01-10T00:01:49.538Z,0.80
2019-01-10T00:04:18.031Z,1.00
2019-01-10T00:06:46.200Z,0.80
2019-01-10T00:09:14.296Z,0.70
2019-01-10T00:11:42.561Z,0.87
2019-01-10T00:14:10.705Z,0.50
2019-01-10T00:16:38.922Z,0.60
2019-01-10T00:19:07.089Z,0.47
2019-01-10T00:21:35.215Z,0.60
2019-01-10T00:24:03.442Z,0.50
2019-01-10T00:26:31.576Z,0.20
2019-01-10T00:28:59.746Z,0.57
2019-01-10T00:31:27.909Z,0.53
2019-01-10T00:33:56.028Z,0.50
2019-01-10T00:36:24.173Z,0.43
2019-01-10T00:38:52.369Z,0.30
2019-01-10T00:41:20.473Z,0.50
2019-01-10T00:43:48.610Z,0.40
2019-01-10T00:46:16.886Z,0.27
2019-01-10T00:48:44.997Z,0.30
2019-01-10T00:51:13.119Z,0.40
2019-01-10T00:53:41.254Z,0.40
2019-01-10T00:56:09.570Z,0.30
2019-01-10T00:58:37.709Z,0.30
2019-01-10T01:01:05.941Z,0.30
2019-01-10T01:03:34.183Z,0.30
2019-01-10T01:06:02.377Z,0.30
2019-01-10T01:08:30.490Z,0.60
2019-01-10T01:10:58.622Z,0.40
2019-01-10T01:13:26.792Z,0.50
2019-01-10T01:15:54.904Z,0.30
2019-01-10T01:18:23.062Z,0.50
2019-01-10T01:20:51.181Z,0.40
2019-01-10T01:23:19.286Z,0.50
2019-01-10T01:25:47.376Z,0.50
2019-01-10T01:28:16.519Z,0.50
2019-01-10T01:30:44.648Z,0.40
2019-01-10T01:33:12.799Z,0.50
2019-01-10T01:35:40.998Z,0.37
2019-01-10T01:38:09.854Z,0.50
2019-01-10T01:40:37.956Z,0.40
2019-01-10T01:43:07.528Z,0.40
2019-01-10T01:45:35.956Z,0.30
2019-01-10T01:48:04.105Z,0.50
2019-01-10T01:50:32.229Z,0.60
2019-01-10T01:53:00.348Z,0.60
2019-01-10T01:55:29.767Z,0.30
2019-01-10T01:57:57.977Z,0.50
2019-01-10T02:00:26.126Z,0.37
2019-01-10T02:02:54.232Z,0.50
2019-01-10T02:05:22.360Z,0.40
2019-01-10T02:07:50.636Z,0.77
2019-01-10T02:10:19.998Z,0.60
2019-01-10T02:12:48.095Z,0.60
2019-01-10T02:15:16.417Z,0.60
2019-01-10T02:17:49.088Z,0.57
2019-01-10T02:20:14.536Z,0.47
2019-01-10T02:22:42.903Z,0.50
2019-01-10T02:25:15.470Z,0.80
2019-01-10T02:27:43.704Z,0.37
2019-01-10T02:30:19.138Z,0.40
2019-01-10T02:32:47.411Z,0.70
2019-01-10T02:35:16.267Z,0.40
2019-01-10T02:37:44.539Z,0.60
2019-01-10T02:40:13.168Z,0.80
2019-01-10T02:42:41.293Z,0.70
2019-01-10T02:45:11.005Z,0.50
2019-01-10T02:47:39.221Z,0.70
2019-01-10T02:50:08.888Z,0.77
2019-01-10T02:52:37.033Z,0.40
2019-01-10T02:55:06.523Z,0.70
2019-01-10T02:57:34.727Z,0.80
2019-01-10T03:00:03.804Z,0.60
2019-01-10T03:02:31.962Z,0.93
2019-01-10T03:05:00.424Z,0.80
2019-01-10T03:07:28.594Z,0.73
2019-01-10T03:09:56.733Z,1.00
2019-01-10T03:12:24.832Z,0.60
2019-01-10T03:14:52.952Z,0.80
2019-01-10T03:17:21.086Z,0.53
2019-01-10T03:19:49.217Z,0.50
2019-01-10T03:22:17.339Z,0.60
2019-01-10T03:24:45.502Z,0.60
2019-01-10T03:27:13.715Z,0.87
2019-01-10T03:29:41.892Z,0.77
2019-01-10T03:32:09.990Z,0.70
2019-01-10T03:34:38.192Z,0.47
2019-01-10T03:37:06.313Z,0.60
2019-01-10T03:39:34.469Z,0.50
2019-01-10T03:42:02.624Z,0.80
2019-01-10T03:44:34.476Z,0.70
2019-01-10T03:47:00.657Z,0.80
2019-01-10T03:49:28.793Z,0.60
2019-01-10T03:51:56.969Z,0.60
2019-01-10T03:54:25.262Z,0.60
2019-01-10T03:56:53.430Z,0.70
2019-01-10T03:59:21.586Z,1.10
2019-01-10T04:01:49.755Z,0.83
2019-01-10T04:04:17.902Z,0.87
2019-01-10T04:06:46.232Z,0.90
2019-01-10T04:09:14.383Z,0.83
2019-01-10T04:11:42.517Z,0.77
2019-01-10T04:14:10.669Z,0.60
2019-01-10T04:16:38.825Z,0.60
2019-01-10T04:19:06.952Z,1.03
2019-01-10T04:21:35.081Z,0.47
2019-01-10T04:24:03.235Z,0.60
2019-01-10T04:26:31.369Z,0.93
2019-01-10T04:28:59.464Z,0.70
2019-01-10T04:31:27.581Z,0.80
2019-01-10T04:33:55.688Z,0.70
2019-01-10T04:36:23.805Z,0.90
2019-01-10T04:38:51.938Z,0.70
2019-01-10T04:41:20.120Z,0.80
2019-01-10T04:43:48.251Z,0.60
2019-01-10T04:46:16.359Z,0.80
2019-01-10T04:48:44.488Z,0.60
2019-01-10T04:51:12.608Z,0.80
2019-01-10T04:53:42.346Z,0.93
2019-01-10T04:56:10.489Z,0.90
2019-01-10T04:58:38.703Z,0.90
2019-01-10T05:01:06.846Z,1.37
2019-01-10T05:03:34.945Z,1.10
2019-01-10T05:06:03.078Z,0.90
2019-01-10T05:08:31.264Z,1.03
2019-01-10T05:10:59.468Z,0.97
2019-01-10T05:13:27.730Z,1.10
2019-01-10T05:15:55.898Z,1.20
2019-01-10T05:18:24.030Z,1.20
2019-01-10T05:20:52.136Z,1.10
2019-01-10T05:23:22.194Z,1.30
2019-01-10T05:25:50.125Z,1.20
2019-01-10T05:28:18.232Z,1.00
2019-01-10T05:30:46.336Z,0.90
2019-01-10T05:33:14.485Z,1.00
2019-01-10T05:35:42.610Z,1.10
2019-01-10T05:38:10.754Z,1.10
2019-01-10T05:40:38.877Z,1.70
2019-01-10T05:43:06.976Z,1.07
2019-01-10T05:45:35.082Z,1.10
2019-01-10T05:48:03.195Z,1.70
2019-01-10T05:50:31.342Z,1.07
2019-01-10T05:52:59.466Z,1.47
2019-01-10T05:55:29.584Z,1.30
2019-01-10T05:57:57.437Z,1.30
2019-01-10T06:00:25.962Z,1.23
2019-01-10T06:02:54.137Z,1.30
2019-01-10T06:05:22.561Z,1.10
2019-01-10T06:07:50.731Z,1.47
2019-01-10T06:10:20.093Z,1.10
2019-01-10T06:12:48.192Z,1.00
2019-01-10T06:15:16.296Z,1.00
2019-01-10T06:17:44.449Z,1.20
2019-01-10T06:20:14.213Z,1.67
2019-01-10T06:22:42.385Z,1.40
2019-01-10T06:25:10.549Z,1.33
2019-01-10T06:27:38.653Z,0.90
2019-01-10T06:30:08.323Z,0.83
2019-01-10T06:32:36.429Z,1.17
2019-01-10T06:35:04.634Z,1.20
2019-01-10T06:37:32.770Z,1.20
2019-01-10T06:40:00.893Z,1.30
2019-01-10T06:42:29.093Z,1.17
2019-01-10T06:44:57.289Z,1.80
2019-01-10T06:47:25.406Z,1.17
2019-01-10T06:49:53.541Z,1.20
2019-01-10T06:52:21.734Z,1.37
2019-01-10T06:54:56.579Z,1.03
2019-01-10T06:57:19.688Z,0.80
2019-01-10T06:59:48.039Z,1.00
2019-01-10T07:02:16.206Z,0.80
2019-01-10T07:04:44.345Z,1.00
2019-01-10T07:07:12.469Z,1.00
2019-01-10T07:09:40.621Z,1.00
2019-01-10T07:12:08.724Z,1.37
2019-01-10T07:14:36.823Z,0.80
2019-01-10T07:17:04.989Z,1.07
2019-01-10T07:19:45.434Z,1.10
2019-01-10T07:22:14.042Z,0.90
2019-01-10T07:24:48.314Z,1.20
2019-01-10T07:27:16.416Z,0.90
2019-01-10T07:29:44.569Z,0.97
2019-01-10T07:32:12.737Z,0.90
2019-01-10T07:34:40.948Z,0.90
2019-01-10T07:37:12.932Z,1.53
2019-01-10T07:39:39.548Z,1.20
2019-01-10T07:42:07.901Z,1.03
2019-01-10T07:44:36.062Z,1.50
2019-01-10T07:47:04.229Z,1.20
2019-01-10T07:49:32.382Z,1.00
2019-01-10T07:52:00.510Z,1.20
2019-01-10T07:54:28.725Z,0.90
2019-01-10T07:56:56.854Z,1.13
2019-01-10T07:59:25.213Z,1.10
2019-01-10T08:01:53.389Z,1.00
2019-01-10T08:04:21.497Z,0.97
2019-01-10T08:06:49.640Z,1.27
2019-01-10T08:09:17.765Z,1.10
2019-01-10T08:11:46.399Z,1.10
2019-01-10T08:14:14.625Z,1.20
2019-01-10T08:16:44.307Z,1.10
2019-01-10T08:19:16.930Z,0.83
2019-01-10T08:21:46.536Z,0.90
2019-01-10T08:24:14.982Z,0.80
2019-01-10T08:26:45.265Z,1.00
2019-01-10T08:29:13.370Z,1.10
2019-01-10T08:31:49.964Z,1.00
2019-01-10T08:34:15.372Z,1.20
2019-01-10T08:36:43.530Z,1.10
2019-01-10T08:39:11.740Z,1.07
2019-01-10T08:41:39.849Z,1.13
2019-01-10T08:44:07.972Z,1.00
2019-01-10T08:46:36.116Z,1.00
2019-01-10T08:49:04.253Z,0.90
2019-01-10T08:51:32.355Z,1.03
2019-01-10T08:54:00.592Z,1.17
2019-01-10T08:56:28.756Z,0.90
2019-01-10T08:58:56.904Z,1.00
2019-01-10T09:01:25.109Z,0.80
2019-01-10T09:03:53.309Z,0.70
2019-01-10T09:06:21.457Z,1.20
2019-01-10T09:08:49.557Z,1.20
2019-01-10T09:11:18.126Z,1.10
2019-01-10T09:13:46.321Z,1.10
2019-01-10T09:16:14.560Z,1.07
2019-01-10T09:18:42.673Z,1.10
2019-01-10T09:21:10.809Z,1.30
2019-01-10T09:23:38.992Z,1.03
2019-01-10T09:26:07.110Z,1.57
2019-01-10T09:28:35.274Z,1.10
2019-01-10T09:31:03.438Z,1.20
2019-01-10T09:33:31.647Z,1.70
2019-01-10T09:35:59.849Z,1.30
2019-01-10T09:38:31.360Z,1.00
2019-01-10T09:40:59.588Z,1.00
2019-01-10T09:43:27.829Z,1.10
2019-01-10T09:45:55.973Z,1.20
2019-01-10T09:48:24.215Z,0.80
2019-01-10T09:50:52.476Z,0.93
2019-01-10T09:53:20.701Z,0.83
2019-01-10T09:55:48.900Z,0.77
2019-01-10T09:58:17.042Z,1.30
2019-01-10T10:00:45.271Z,1.00
2019-01-10T10:03:13.526Z,0.87
2019-01-10T10:05:41.725Z,0.93
2019-01-10T10:08:09.888Z,1.00
2019-01-10T10:10:38.037Z,1.00
2019-01-10T10:13:06.133Z,1.10
2019-01-10T10:15:34.248Z,1.13
2019-01-10T10:18:02.397Z,1.20
2019-01-10T10:20:30.527Z,0.90
2019-01-10T10:22:58.650Z,1.00
2019-01-10T10:25:26.780Z,0.83
2019-01-10T10:27:54.947Z,0.73
2019-01-10T10:30:25.237Z,1.00
2019-01-10T10:32:52.941Z,1.10
2019-01-10T10:35:21.271Z,0.87
2019-01-10T10:37:49.754Z,1.10
2019-01-10T10:40:18.557Z,1.20
2019-01-10T10:42:47.061Z,0.97
2019-01-10T10:45:16.391Z,0.97
2019-01-10T10:47:44.536Z,0.90
2019-01-10T10:50:14.206Z,1.10
2019-01-10T10:52:42.381Z,0.93
2019-01-10T10:55:10.521Z,0.87
2019-01-10T10:57:38.697Z,1.23
2019-01-10T11:00:14.007Z,0.90
2019-01-10T11:02:42.210Z,1.43
2019-01-10T11:05:10.473Z,1.10
2019-01-10T11:07:38.602Z,0.90
2019-01-10T11:10:08.270Z,1.10
2019-01-10T11:12:36.376Z,1.00
2019-01-10T11:15:05.862Z,1.37
2019-01-10T11:17:34.008Z,1.07
2019-01-10T11:20:02.120Z,1.50
2019-01-10T11:22:30.301Z,1.23
2019-01-10T11:24:58.512Z,1.03
2019-01-10T11:27:26.672Z,0.90
2019-01-10T11:29:54.854Z,0.80
2019-01-10T11:32:23.029Z,0.87
2019-01-10T11:34:51.185Z,1.20
2019-01-10T11:37:19.338Z,1.57
2019-01-10T11:39:47.593Z,0.80
2019-01-10T11:42:15.950Z,1.07
2019-01-10T11:44:44.080Z,0.90
2019-01-10T11:47:12.193Z,1.27
2019-01-10T11:49:40.362Z,0.80
2019-01-10T11:52:08.457Z,1.13
2019-01-10T11:54:36.560Z,0.80
2019-01-10T11:57:04.701Z,1.33
2019-01-10T11:59:32.806Z,0.80
2019-01-10T12:02:00.924Z,0.93
2019-01-10T12:04:29.036Z,0.90
2019-01-10T12:06:57.167Z,0.80
2019-01-10T12:09:25.359Z,1.00
2019-01-10T12:11:53.539Z,0.70
2019-01-10T12:14:21.681Z,0.90
2019-01-10T12:16:49.853Z,0.90
2019-01-10T12:19:17.961Z,0.80
2019-01-10T12:21:46.090Z,0.90
2019-01-10T12:24:14.245Z,1.03
2019-01-10T12:26:42.472Z,0.93
2019-01-10T12:29:10.667Z,0.83
2019-01-10T12:31:38.823Z,1.03
2019-01-10T12:34:07.050Z,0.70
2019-01-10T12:36:35.168Z,0.80
2019-01-10T12:39:04.706Z,1.00
2019-01-10T12:41:32.902Z,0.83
2019-01-10T12:44:01.029Z,0.80
2019-01-10T12:46:37.268Z,0.80
2019-01-10T12:48:59.072Z,0.80
2019-01-10T12:51:27.235Z,0.90
2019-01-10T12:53:55.351Z,0.80
2019-01-10T12:56:23.454Z,0.83
2019-01-10T12:58:51.628Z,0.70
2019-01-10T13:01:19.771Z,1.00
2019-01-10T13:03:47.952Z,0.80
2019-01-10T13:06:16.085Z,0.90
2019-01-10T13:08:44.221Z,0.90
2019-01-10T13:11:12.420Z,0.90
2019-01-10T13:13:40.557Z,0.70
2019-01-10T13:16:08.675Z,0.70
2019-01-10T13:18:47.885Z,0.70
2019-01-10T13:21:16.052Z,0.73
2019-01-10T13:23:44.218Z,0.70
2019-01-10T13:26:12.406Z,0.80
2019-01-10T13:28:40.509Z,0.90
2019-01-10T13:31:10.169Z,0.80
2019-01-10T13:33:38.349Z,0.97
2019-01-10T13:36:06.558Z,0.80
2019-01-10T13:38:34.712Z,0.60
2019-01-10T13:41:03.350Z,0.70
2019-01-10T13:43:31.694Z,0.68
2019-01-10T13:46:00.029Z,0.60
2019-01-10T13:48:28.234Z,1.00
2019-01-10T13:50:57.957Z,1.10
2019-01-10T13:53:26.346Z,0.60
2019-01-10T13:55:54.531Z,0.70
2019-01-10T13:58:22.708Z,0.70
2019-01-10T14:00:51.304Z,0.70
2019-01-10T14:03:19.438Z,0.73
2019-01-10T14:05:47.581Z,0.60
2019-01-10T14:08:15.813Z,0.67
2019-01-10T14:10:43.998Z,0.70
2019-01-10T14:13:12.132Z,0.60
2019-01-10T14:15:40.259Z,0.67
2019-01-10T14:18:08.389Z,0.90
2019-01-10T14:20:36.536Z,0.87
2019-01-10T14:23:04.727Z,0.50
2019-01-10T14:25:32.857Z,0.90
2019-01-10T14:28:01.100Z,0.73
2019-01-10T14:30:33.017Z,0.70
2019-01-10T14:33:01.329Z,0.63
2019-01-10T14:35:29.713Z,1.00
2019-01-10T14:37:57.901Z,0.80
2019-01-10T14:40:27.002Z,0.60
2019-01-10T14:42:55.943Z,0.70
2019-01-10T14:45:24.408Z,0.70
2019-01-10T14:47:52.584Z,0.90
2019-01-10T14:50:21.010Z,0.83
2019-01-10T14:52:52.061Z,0.80
2019-01-10T14:55:20.221Z,0.57
2019-01-10T14:57:48.334Z,0.50
2019-01-10T15:00:18.017Z,0.80
2019-01-10T15:02:46.186Z,1.93
2019-01-10T15:05:14.377Z,2.80
2019-01-10T15:07:43.140Z,0.63
2019-01-10T15:10:11.444Z,0.70
2019-01-10T15:12:39.987Z,0.80
2019-01-10T15:15:09.662Z,1.00
2019-01-10T15:17:37.804Z,0.67
2019-01-10T15:20:07.632Z,0.63
2019-01-10T15:22:35.774Z,0.60
2019-01-10T15:25:04.849Z,0.80
2019-01-10T15:27:32.997Z,0.70
2019-01-10T15:30:01.185Z,1.00
2019-01-10T15:32:29.413Z,0.90
2019-01-10T15:34:57.545Z,0.87
2019-01-10T15:37:25.770Z,0.70
2019-01-10T15:39:54.085Z,0.97
2019-01-10T15:42:22.221Z,1.17
2019-01-10T15:44:50.335Z,0.83
2019-01-10T15:47:19.856Z,1.27
2019-01-10T15:49:48.299Z,0.70
2019-01-10T15:52:16.718Z,0.87
2019-01-10T15:54:44.970Z,1.50
2019-01-10T15:57:13.197Z,0.97
2019-01-10T15:59:41.486Z,1.17
2019-01-10T16:02:09.710Z,0.97
2019-01-10T16:04:38.234Z,0.90
2019-01-10T16:07:06.512Z,0.93
2019-01-10T16:09:37.725Z,0.70
2019-01-10T16:12:05.855Z,1.47
2019-01-10T16:14:33.994Z,1.20
2019-01-10T16:17:02.488Z,1.10
2019-01-10T16:19:30.592Z,1.10
2019-01-10T16:21:58.745Z,1.03
2019-01-10T16:24:26.845Z,0.83
2019-01-10T16:26:54.994Z,1.10
2019-01-10T16:29:23.166Z,1.10
2019-01-10T16:31:51.274Z,1.70
2019-01-10T16:34:19.435Z,1.30
2019-01-10T16:36:47.585Z,1.30
2019-01-10T16:39:15.709Z,1.73
2019-01-10T16:41:43.824Z,1.50
2019-01-10T16:44:11.969Z,1.67
2019-01-10T16:46:40.148Z,1.17
2019-01-10T16:49:08.293Z,1.30
2019-01-10T16:51:36.409Z,1.37
2019-01-10T16:54:04.526Z,1.23
2019-01-10T16:56:32.637Z,1.63
2019-01-10T16:59:00.771Z,1.20
2019-01-10T17:01:28.906Z,1.00
2019-01-10T17:03:57.033Z,1.30
2019-01-10T17:06:25.160Z,1.30
2019-01-10T17:08:53.331Z,1.03
2019-01-10T17:11:21.508Z,1.10
2019-01-10T17:13:49.657Z,1.27
2019-01-10T17:16:17.804Z,1.67
2019-01-10T17:18:45.920Z,1.33
2019-01-10T17:21:14.184Z,1.60
2019-01-10T17:23:42.336Z,1.30
2019-01-10T17:26:10.570Z,1.30
2019-01-10T17:28:38.773Z,1.70
2019-01-10T17:31:06.872Z,1.17
2019-01-10T17:33:34.995Z,1.30
2019-01-10T17:36:03.161Z,1.53
2019-01-10T17:38:31.346Z,1.33
2019-01-10T17:40:59.513Z,1.20
2019-01-10T17:43:27.649Z,6.73
2019-01-10T17:45:56.030Z,6.37
2019-01-10T17:48:24.241Z,1.33
2019-01-10T17:50:52.372Z,1.50
2019-01-10T17:53:20.549Z,2.80
2019-01-10T17:55:48.672Z,1.40
2019-01-10T18:01:26.576Z,3.13
2019-01-10T18:03:54.749Z,2.33
2019-01-10T18:06:22.864Z,1.30
2019-01-10T18:08:51.010Z,1.83
2019-01-10T18:11:19.169Z,1.40
2019-01-10T18:13:47.380Z,1.60
2019-01-10T18:16:15.617Z,1.37
2019-01-10T18:18:43.791Z,1.60
2019-01-10T18:21:15.089Z,1.80
2019-01-10T18:23:41.766Z,1.90
2019-01-10T18:26:18.019Z,1.50
2019-01-10T18:28:46.290Z,1.80
2019-01-10T18:31:14.401Z,1.97
2019-01-10T18:33:42.563Z,1.53
2019-01-10T18:36:10.750Z,2.17
2019-01-10T18:38:39.230Z,1.40
2019-01-10T18:41:07.437Z,1.77
2019-01-10T18:43:35.579Z,1.97
2019-01-10T18:46:03.818Z,1.60
2019-01-10T18:48:31.980Z,2.10
2019-01-10T18:51:00.206Z,2.23
2019-01-10T18:53:28.382Z,1.70
2019-01-10T18:55:56.534Z,2.07
2019-01-10T18:58:24.723Z,2.47
2019-01-10T19:00:52.903Z,2.10
2019-01-10T19:03:21.053Z,2.17
2019-01-10T19:05:49.207Z,2.27
2019-01-10T19:08:17.359Z,2.57
2019-01-10T19:10:48.590Z,2.10
2019-01-10T19:13:16.893Z,2.37
2019-01-10T19:15:45.143Z,2.57
2019-01-10T19:18:13.294Z,2.00
2019-01-10T19:20:41.487Z,2.30
2019-01-10T19:23:10.029Z,2.20
2019-01-10T19:25:38.186Z,2.40
2019-01-10T19:28:06.296Z,2.30
2019-01-10T19:30:34.653Z,1.60
2019-01-10T19:33:02.872Z,2.03
2019-01-10T19:35:31.511Z,2.20
2019-01-10T19:38:01.419Z,2.63
2019-01-10T19:40:29.817Z,2.27
2019-01-10T19:43:00.892Z,1.77
2019-01-10T19:45:29.099Z,2.67
2019-01-10T19:47:57.327Z,1.97
2019-01-10T19:50:25.842Z,2.23
2019-01-10T19:52:53.992Z,2.17
2019-01-10T19:55:22.652Z,2.33
2019-01-10T19:57:51.028Z,2.70
2019-01-10T20:00:26.530Z,11.13
2019-01-10T20:02:54.667Z,3.13
2019-01-10T20:05:22.923Z,3.10
2019-01-10T20:07:55.577Z,2.70
2019-01-10T20:10:24.069Z,5.63
2019-01-10T20:12:58.244Z,2.90
2019-01-10T20:15:28.028Z,3.07
2019-01-10T20:17:56.924Z,3.00
2019-01-10T20:20:32.476Z,2.63
2019-01-10T20:23:00.661Z,2.40
2019-01-10T20:25:28.842Z,2.37
2019-01-10T20:27:57.291Z,2.73
2019-01-10T20:30:25.601Z,2.90
2019-01-10T20:32:54.306Z,2.30
2019-01-10T20:35:22.647Z,2.20
2019-01-10T20:37:50.936Z,2.07
2019-01-10T20:40:19.319Z,2.40
2019-01-10T20:42:47.631Z,2.50
2019-01-10T20:45:15.879Z,2.00
2019-01-10T20:47:44.178Z,2.00
2019-01-10T20:50:15.107Z,2.13
2019-01-10T20:52:43.212Z,1.90
2019-01-10T20:55:14.972Z,2.50
2019-01-10T20:57:46.077Z,2.83
2019-01-10T21:00:18.276Z,2.07
2019-01-10T21:02:46.918Z,2.30
2019-01-10T21:05:15.120Z,4.10
2019-01-10T21:07:44.946Z,2.40
2019-01-10T21:10:14.833Z,2.93
2019-01-10T21:12:43.232Z,2.43
2019-01-10T21:15:13.088Z,3.20
2019-01-10T21:17:41.280Z,2.70
2019-01-10T21:20:10.072Z,3.50
2019-01-10T21:22:38.184Z,2.50
2019-01-10T21:25:08.067Z,2.47
2019-01-10T21:27:36.269Z,2.40
2019-01-10T21:30:05.974Z,2.43
2019-01-10T21:32:34.175Z,1.80
2019-01-10T21:35:02.305Z,3.37
2019-01-10T21:37:36.113Z,1.87
2019-01-10T21:40:07.176Z,2.00
2019-01-10T21:42:35.333Z,1.77
2019-01-10T21:45:05.323Z,2.20
2019-01-10T21:47:33.515Z,1.80
2019-01-10T21:50:01.826Z,2.10
2019-01-10T21:52:29.964Z,2.07
2019-01-10T21:54:59.621Z,2.30
2019-01-10T21:57:30.527Z,2.30
2019-01-10T21:59:58.211Z,2.40
2019-01-10T22:02:26.405Z,2.07
2019-01-10T22:04:54.600Z,2.77
2019-01-10T22:07:22.737Z,2.23
2019-01-10T22:09:50.871Z,3.07
2019-01-10T22:12:19.052Z,1.93
2019-01-10T22:14:47.264Z,3.83
2019-01-10T22:17:15.405Z,2.20
2019-01-10T22:19:43.531Z,2.93
2019-01-10T22:22:11.637Z,2.00
2019-01-10T22:24:39.773Z,4.00
2019-01-10T22:27:07.921Z,2.37
2019-01-10T22:29:36.080Z,1.93
2019-01-10T22:32:04.410Z,1.97
2019-01-10T22:34:32.615Z,2.83
2019-01-10T22:37:00.820Z,1.90
2019-01-10T22:39:28.939Z,2.50
2019-01-10T22:41:57.062Z,2.47
2019-01-10T22:44:25.177Z,2.17
2019-01-10T22:46:56.033Z,2.50
2019-01-10T22:49:33.991Z,6.17
2019-01-10T22:51:56.469Z,3.23
2019-01-10T22:54:24.593Z,2.77
2019-01-10T22:56:52.777Z,1.90
2019-01-10T22:59:21.224Z,2.33
2019-01-10T23:01:49.724Z,2.27
2019-01-10T23:04:19.574Z,3.03
2019-01-10T23:06:47.769Z,2.50
2019-01-10T23:09:15.900Z,2.43
2019-01-10T23:11:44.041Z,2.20
2019-01-10T23:14:12.210Z,2.10
2019-01-10T23:16:40.345Z,3.20
2019-01-10T23:19:08.480Z,2.30
2019-01-10T23:21:36.790Z,2.30
2019-01-10T23:24:05.960Z,2.83
2019-01-10T23:26:34.157Z,2.43
2019-01-10T23:29:02.271Z,2.83
2019-01-10T23:31:30.399Z,2.63
2019-01-10T23:34:01.742Z,2.93
2019-01-10T23:36:29.847Z,2.23
2019-01-10T23:39:10.227Z,2.90
2019-01-10T23:41:38.366Z,2.63
2019-01-10T23:44:06.572Z,3.00
2019-01-10T23:46:34.714Z,2.67
2019-01-10T23:49:02.827Z,2.93
2019-01-10T23:51:30.977Z,2.90
2019-01-10T23:53:59.140Z,2.23
2019-01-10T23:56:27.306Z,2.90
2019-01-10T23:58:55.628Z,3.10
